createdAt,value
2022-09-03T00:00:43.262Z,65.25
2022-09-03T00:03:26.003Z,64.64
2022-09-03T00:06:10.544Z,57.98
2022-09-03T00:09:13.091Z,54.97
2022-09-03T00:11:54.017Z,55.53
2022-09-03T00:14:53.018Z,56.43
2022-09-03T00:17:55.990Z,57.49
2022-09-03T00:20:44.186Z,58.64
2022-09-03T00:23:19.467Z,59.54
2022-09-03T00:25:54.706Z,60.68
2022-09-03T00:28:43.448Z,60.94
2022-09-03T00:31:27.566Z,64.93
2022-09-03T00:34:02.550Z,64.41
2022-09-03T00:36:42.289Z,58.15
2022-09-03T00:39:16.841Z,55.03
2022-09-03T00:42:06.681Z,55.61
2022-09-03T00:45:15.381Z,56.43
2022-09-03T00:48:08.107Z,57.59
2022-09-03T00:50:53.857Z,58.75
2022-09-03T00:53:33.724Z,59.74
2022-09-03T00:56:16.193Z,61.18
2022-09-03T00:59:18.922Z,64.84
2022-09-03T01:02:01.417Z,64.28
2022-09-03T01:04:58.749Z,57.40
2022-09-03T01:07:46.333Z,54.85
2022-09-03T01:10:32.394Z,55.78
2022-09-03T01:13:24.036Z,56.79
2022-09-03T01:16:02.067Z,57.85
2022-09-03T01:19:03.316Z,59.09
2022-09-03T01:22:20.635Z,59.99
2022-09-03T01:25:15.800Z,61.29
2022-09-03T01:28:27.374Z,63.48
2022-09-03T01:31:11.922Z,62.31
2022-09-03T01:34:03.099Z,56.39
2022-09-03T01:36:59.066Z,56.04
2022-09-03T01:40:17.745Z,57.15
2022-09-03T01:43:00.248Z,58.27
2022-09-03T01:45:51.632Z,59.22
2022-09-03T01:48:38.057Z,60.34
2022-09-03T01:51:09.260Z,61.37
2022-09-03T01:54:02.070Z,65.58
2022-09-03T01:56:58.117Z,64.20
2022-09-03T01:59:38.671Z,61.14
2022-09-03T02:02:20.477Z,54.58
2022-09-03T02:05:24.721Z,53.02
2022-09-03T02:08:07.390Z,54.28
2022-09-03T02:10:50.951Z,55.63
2022-09-03T02:13:49.943Z,56.87
2022-09-03T02:16:22.261Z,58.20
2022-09-03T02:19:01.671Z,59.36
2022-09-03T02:21:35.555Z,60.12
2022-09-03T02:24:05.169Z,60.92
2022-09-03T02:26:33.011Z,64.28
2022-09-03T02:29:02.630Z,63.48
2022-09-03T02:31:30.909Z,61.32
2022-09-03T02:33:59.841Z,56.15
2022-09-03T02:36:32.384Z,54.67
2022-09-03T02:39:00.575Z,55.54
2022-09-03T02:41:28.832Z,56.86
2022-09-03T02:44:12.372Z,57.90
2022-09-03T02:46:52.107Z,58.74
2022-09-03T02:49:19.821Z,60.28
2022-09-03T02:51:47.738Z,61.26
2022-09-03T02:54:20.262Z,63.85
2022-09-03T02:56:49.901Z,63.86
2022-09-03T02:59:18.251Z,60.94
2022-09-03T03:01:46.693Z,56.29
2022-09-03T03:04:15.165Z,54.50
2022-09-03T03:06:42.981Z,55.32
2022-09-03T03:09:15.642Z,56.41
2022-09-03T03:11:44.313Z,57.48
2022-09-03T03:14:11.987Z,58.64
2022-09-03T03:16:39.823Z,60.22
2022-09-03T03:19:07.813Z,60.61
2022-09-03T03:21:35.597Z,63.52
2022-09-03T03:24:04.280Z,64.69
2022-09-03T03:26:32.840Z,61.69
2022-09-03T03:29:04.705Z,56.30
2022-09-03T03:31:33.780Z,54.33
2022-09-03T03:34:03.775Z,55.08
2022-09-03T03:36:33.677Z,56.29
2022-09-03T03:39:03.235Z,57.36
2022-09-03T03:41:34.034Z,58.65
2022-09-03T03:44:04.932Z,59.54
2022-09-03T03:46:36.741Z,60.90
2022-09-03T03:49:06.842Z,61.62
2022-09-03T03:51:36.268Z,63.70
2022-09-03T03:54:05.703Z,64.11
2022-09-03T03:56:34.945Z,60.45
2022-09-03T03:59:03.860Z,55.56
2022-09-03T04:01:32.766Z,54.03
2022-09-03T04:04:00.720Z,55.55
2022-09-03T04:06:29.188Z,56.53
2022-09-03T04:08:57.207Z,57.58
2022-09-03T04:11:26.243Z,58.44
2022-09-03T04:13:54.616Z,59.51
2022-09-03T04:16:25.390Z,60.89
2022-09-03T04:18:57.460Z,64.48
2022-09-03T04:21:28.663Z,64.04
2022-09-03T04:23:58.073Z,57.49
2022-09-03T04:26:31.689Z,55.33
2022-09-03T04:29:03.008Z,55.73
2022-09-03T04:31:31.845Z,56.75
2022-09-03T04:33:59.883Z,58.16
2022-09-03T04:36:29.987Z,58.95
2022-09-03T04:39:00.097Z,59.83
2022-09-03T04:41:30.217Z,61.12
2022-09-03T04:43:59.703Z,64.16
2022-09-03T04:46:35.499Z,63.44
2022-09-03T04:49:03.933Z,56.48
2022-09-03T04:51:32.351Z,54.92
2022-09-03T04:54:02.334Z,55.52
2022-09-03T04:56:35.572Z,56.68
2022-09-03T04:59:09.137Z,57.78
2022-09-03T05:01:39.665Z,58.87
2022-09-03T05:04:08.553Z,60.10
2022-09-03T05:06:37.428Z,60.97
2022-09-03T05:09:06.169Z,61.90
2022-09-03T05:11:34.353Z,61.71
2022-09-03T05:14:02.988Z,61.52
2022-09-03T05:16:31.146Z,62.15
2022-09-03T05:19:01.484Z,64.27
2022-09-03T05:21:30.793Z,62.45
2022-09-03T05:24:01.305Z,55.25
2022-09-03T05:26:32.039Z,52.60
2022-09-03T05:29:02.652Z,53.42
2022-09-03T05:31:32.118Z,55.04
2022-09-03T05:34:03.435Z,55.92
2022-09-03T05:36:34.839Z,56.99
2022-09-03T05:39:03.789Z,57.90
2022-09-03T05:41:34.394Z,59.03
2022-09-03T05:44:04.044Z,59.63
2022-09-03T05:46:33.659Z,60.33
2022-09-03T05:49:03.134Z,61.28
2022-09-03T05:51:32.034Z,63.34
2022-09-03T05:53:59.929Z,61.07
2022-09-03T05:56:29.647Z,55.96
2022-09-03T05:59:03.254Z,55.27
2022-09-03T06:01:51.598Z,56.33
2022-09-03T06:04:21.623Z,57.15
2022-09-03T06:06:50.188Z,57.80
2022-09-03T06:09:20.109Z,58.70
2022-09-03T06:11:50.239Z,58.96
2022-09-03T06:14:18.325Z,59.75
2022-09-03T06:16:53.049Z,60.23
2022-09-03T06:19:21.094Z,60.75
2022-09-03T06:21:48.940Z,60.94
2022-09-03T06:24:20.242Z,61.02
2022-09-03T06:26:48.167Z,61.70
2022-09-03T06:29:17.561Z,61.87
2022-09-03T06:31:45.582Z,62.18
2022-09-03T06:34:13.621Z,63.18
2022-09-03T06:36:41.465Z,64.04
2022-09-03T06:39:10.233Z,59.68
2022-09-03T06:41:38.436Z,53.28
2022-09-03T06:44:11.754Z,51.73
2022-09-03T06:46:42.857Z,52.52
2022-09-03T06:49:11.833Z,53.63
2022-09-03T06:51:40.580Z,53.01
2022-09-03T06:54:11.176Z,52.81
2022-09-03T06:56:41.523Z,51.80
2022-09-03T06:59:14.761Z,51.05
2022-09-03T07:01:46.297Z,50.24
2022-09-03T07:04:20.085Z,49.65
2022-09-03T07:06:48.774Z,48.95
2022-09-03T07:09:19.024Z,48.57
2022-09-03T07:11:48.326Z,48.14
2022-09-03T07:14:18.727Z,47.27
2022-09-03T07:16:48.615Z,46.21
2022-09-03T07:19:17.018Z,45.90
2022-09-03T07:21:49.537Z,45.12
2022-09-03T07:24:19.902Z,43.78
2022-09-03T07:26:49.602Z,43.85
2022-09-03T07:29:20.834Z,44.40
2022-09-03T07:31:53.571Z,45.16
2022-09-03T07:34:25.652Z,46.10
2022-09-03T07:36:55.132Z,47.09
2022-09-03T07:39:23.334Z,47.57
2022-09-03T07:41:51.977Z,48.35
2022-09-03T07:44:20.465Z,48.98
2022-09-03T07:46:51.308Z,49.26
2022-09-03T07:49:21.963Z,49.37
2022-09-03T07:51:54.693Z,49.91
2022-09-03T07:54:24.094Z,50.41
2022-09-03T07:56:52.091Z,50.87
2022-09-03T07:59:21.423Z,50.99
2022-09-03T08:01:51.015Z,50.60
2022-09-03T08:04:18.947Z,51.26
2022-09-03T08:06:47.335Z,51.26
2022-09-03T08:09:15.123Z,51.72
2022-09-03T08:11:43.922Z,51.51
2022-09-03T08:14:13.431Z,51.48
2022-09-03T08:16:44.036Z,51.73
2022-09-03T08:19:13.459Z,51.93
2022-09-03T08:21:42.359Z,52.09
2022-09-03T08:24:16.626Z,51.67
2022-09-03T08:26:50.652Z,51.26
2022-09-03T08:29:20.642Z,51.62
2022-09-03T08:31:48.859Z,51.47
2022-09-03T08:34:17.991Z,51.37
2022-09-03T08:36:47.372Z,50.68
2022-09-03T08:39:15.376Z,51.08
2022-09-03T08:42:01.036Z,50.87
2022-09-03T08:44:47.120Z,50.79
2022-09-03T08:47:35.007Z,50.84
2022-09-03T08:50:16.983Z,50.91
2022-09-03T08:52:49.962Z,51.24
2022-09-03T08:55:45.259Z,51.16
2022-09-03T08:58:15.028Z,50.62
2022-09-03T09:01:07.389Z,50.63
2022-09-03T09:04:10.801Z,50.70
2022-09-03T09:06:44.640Z,50.78
2022-09-03T09:09:43.040Z,50.13
2022-09-03T09:12:25.390Z,50.60
2022-09-03T09:15:26.329Z,49.33
2022-09-03T09:18:31.354Z,48.48
2022-09-03T09:21:20.965Z,47.97
2022-09-03T09:23:51.155Z,47.95
2022-09-03T09:26:22.355Z,47.56
2022-09-03T09:28:58.471Z,47.33
2022-09-03T09:31:28.580Z,47.24
2022-09-03T09:34:04.763Z,46.63
2022-09-03T09:36:42.885Z,46.72
2022-09-03T09:39:12.490Z,46.53
2022-09-03T09:41:40.156Z,46.84
2022-09-03T09:44:07.946Z,46.23
2022-09-03T09:46:39.544Z,45.36
2022-09-03T09:49:32.617Z,45.71
2022-09-03T09:52:16.348Z,45.54
2022-09-03T09:54:48.698Z,45.12
2022-09-03T09:57:24.609Z,45.00
2022-09-03T10:00:14.227Z,44.55
2022-09-03T10:02:51.595Z,44.29
2022-09-03T10:05:26.163Z,44.67
2022-09-03T10:07:59.494Z,45.00
2022-09-03T10:10:29.330Z,44.77
2022-09-03T10:13:09.483Z,42.88
2022-09-03T10:15:45.023Z,42.50
2022-09-03T10:18:43.578Z,43.17
2022-09-03T10:21:34.400Z,43.11
2022-09-03T10:24:33.653Z,42.92
2022-09-03T10:27:01.760Z,42.65
2022-09-03T10:29:30.231Z,42.23
2022-09-03T10:32:23.098Z,42.42
2022-09-03T10:35:02.377Z,42.25
2022-09-03T10:38:02.286Z,42.53
2022-09-03T10:40:49.377Z,42.31
2022-09-03T10:43:36.024Z,40.60
2022-09-03T10:46:17.491Z,40.53
2022-09-03T10:49:20.480Z,40.28
2022-09-03T10:51:59.563Z,40.67
2022-09-03T10:54:43.121Z,40.56
2022-09-03T10:57:35.981Z,40.48
2022-09-03T11:00:12.769Z,40.34
2022-09-03T11:02:52.601Z,40.08
2022-09-03T11:05:49.982Z,40.01
2022-09-03T11:08:26.210Z,39.98
2022-09-03T11:11:39.327Z,40.02
2022-09-03T11:14:10.203Z,39.85
2022-09-03T11:17:03.948Z,39.70
2022-09-03T11:19:47.090Z,39.88
2022-09-03T11:22:20.959Z,39.80
2022-09-03T11:24:58.389Z,39.48
2022-09-03T11:27:41.221Z,39.35
2022-09-03T11:30:22.186Z,38.90
2022-09-03T11:32:56.927Z,38.52
2022-09-03T11:35:38.131Z,38.32
2022-09-03T11:38:21.520Z,38.12
2022-09-03T11:41:04.364Z,38.45
2022-09-03T11:43:35.904Z,38.40
2022-09-03T11:46:12.728Z,38.08
2022-09-03T11:48:46.327Z,38.03
2022-09-03T11:51:30.726Z,37.95
2022-09-03T11:54:26.061Z,38.23
2022-09-03T11:57:16.428Z,38.40
2022-09-03T11:59:44.950Z,38.19
2022-09-03T12:02:35.308Z,37.92
2022-09-03T12:05:12.437Z,38.07
2022-09-03T12:07:45.852Z,37.99
2022-09-03T12:10:22.716Z,37.83
2022-09-03T12:12:54.958Z,37.74
2022-09-03T12:16:08.726Z,37.38
2022-09-03T12:18:37.951Z,37.53
2022-09-03T12:21:09.045Z,37.59
2022-09-03T12:23:44.841Z,37.21
2022-09-03T12:26:16.438Z,37.47
2022-09-03T12:28:50.437Z,37.28
2022-09-03T12:31:30.128Z,37.23
2022-09-03T12:34:15.216Z,37.37
2022-09-03T12:36:49.389Z,37.15
2022-09-03T12:42:27.842Z,37.70
2022-09-03T12:44:55.992Z,37.56
2022-09-03T12:47:35.545Z,37.19
2022-09-03T12:50:09.014Z,37.20
2022-09-03T12:52:50.925Z,37.30
2022-09-03T12:55:27.698Z,37.30
2022-09-03T12:58:17.356Z,37.46
2022-09-03T13:00:51.394Z,37.44
2022-09-03T13:03:34.543Z,37.59
2022-09-03T13:06:08.050Z,37.24
2022-09-03T13:08:48.851Z,37.28
2022-09-03T13:11:20.743Z,37.56
2022-09-03T13:13:58.253Z,37.58
2022-09-03T13:16:38.438Z,37.50
2022-09-03T13:19:09.390Z,37.53
2022-09-03T13:21:58.770Z,37.38
2022-09-03T13:24:39.221Z,37.11
2022-09-03T13:27:19.445Z,37.00
2022-09-03T13:29:55.952Z,37.01
2022-09-03T13:32:37.469Z,37.11
2022-09-03T13:35:17.693Z,37.02
2022-09-03T13:37:53.508Z,37.08
2022-09-03T13:40:45.721Z,37.22
2022-09-03T13:43:27.851Z,37.41
2022-09-03T13:46:13.908Z,37.57
2022-09-03T13:49:04.012Z,37.36
2022-09-03T13:51:40.040Z,37.47
2022-09-03T13:54:36.576Z,37.18
2022-09-03T13:57:31.650Z,37.25
2022-09-03T14:00:10.866Z,37.05
2022-09-03T14:02:54.319Z,36.72
2022-09-03T14:05:44.039Z,36.91
2022-09-03T14:08:59.068Z,36.88
2022-09-03T14:11:52.225Z,37.08
2022-09-03T14:15:00.168Z,37.15
2022-09-03T14:17:46.598Z,37.12
2022-09-03T14:20:52.052Z,37.17
2022-09-03T14:23:38.455Z,37.26
2022-09-03T14:26:07.641Z,37.30
2022-09-03T14:28:49.515Z,37.23
2022-09-03T14:31:52.175Z,37.15
2022-09-03T14:34:19.978Z,37.09
2022-09-03T14:37:03.476Z,36.98
2022-09-03T14:39:33.615Z,37.11
2022-09-03T14:42:14.756Z,36.98
2022-09-03T14:45:02.382Z,37.13
2022-09-03T14:47:59.871Z,36.86
2022-09-03T14:50:48.792Z,37.00
2022-09-03T14:54:03.329Z,37.01
2022-09-03T14:56:48.346Z,37.26
2022-09-03T14:59:34.570Z,37.44
2022-09-03T15:02:49.237Z,37.36
2022-09-03T15:05:49.461Z,37.34
2022-09-03T15:08:29.384Z,36.92
2022-09-03T15:11:02.797Z,37.03
2022-09-03T15:13:36.191Z,37.02
2022-09-03T15:16:19.396Z,36.80
2022-09-03T15:19:10.324Z,36.71
2022-09-03T15:21:50.356Z,36.75
2022-09-03T15:24:32.675Z,36.84
2022-09-03T15:27:29.698Z,36.99
2022-09-03T15:30:21.399Z,36.96
2022-09-03T15:33:04.182Z,36.85
2022-09-03T15:36:17.839Z,36.29
2022-09-03T15:39:00.729Z,36.32
2022-09-03T15:41:40.124Z,36.61
2022-09-03T15:44:19.007Z,36.60
2022-09-03T15:46:56.939Z,36.78
2022-09-03T15:49:40.944Z,36.76
2022-09-03T15:52:27.669Z,36.98
2022-09-03T15:55:09.871Z,36.94
2022-09-03T15:57:50.018Z,36.94
2022-09-03T16:00:21.638Z,37.17
2022-09-03T16:02:59.082Z,37.19
2022-09-03T16:05:48.420Z,37.28
2022-09-03T16:08:43.766Z,37.39
2022-09-03T16:11:21.995Z,37.33
2022-09-03T16:14:31.622Z,37.54
2022-09-03T16:17:18.605Z,37.59
2022-09-03T16:19:59.709Z,37.81
2022-09-03T16:22:31.960Z,38.00
2022-09-03T16:25:14.189Z,37.88
2022-09-03T16:28:07.637Z,37.87
2022-09-03T16:30:39.895Z,38.15
2022-09-03T16:33:07.520Z,38.10
2022-09-03T16:35:50.507Z,38.22
2022-09-03T16:38:44.103Z,38.30
2022-09-03T16:41:23.387Z,38.35
2022-09-03T16:43:57.241Z,38.54
2022-09-03T16:46:28.705Z,38.67
2022-09-03T16:49:06.639Z,38.62
2022-09-03T16:51:54.942Z,38.77
2022-09-03T16:54:57.371Z,38.76
2022-09-03T16:57:50.346Z,38.74
2022-09-03T17:00:21.523Z,38.86
2022-09-03T17:03:07.905Z,38.81
2022-09-03T17:06:14.153Z,38.92
2022-09-03T17:08:52.353Z,38.93
2022-09-03T17:11:23.639Z,39.04
2022-09-03T17:13:51.534Z,39.23
2022-09-03T17:16:41.598Z,39.51
2022-09-03T17:19:52.782Z,39.49
2022-09-03T17:22:47.290Z,39.74
2022-09-03T17:25:24.098Z,39.82
2022-09-03T17:28:20.270Z,40.08
2022-09-03T17:31:16.104Z,40.17
2022-09-03T17:34:12.516Z,40.37
2022-09-03T17:37:00.280Z,40.52
2022-09-03T17:39:37.077Z,40.68
2022-09-03T17:42:16.277Z,40.83
2022-09-03T17:45:29.838Z,40.88
2022-09-03T17:48:22.235Z,40.98
2022-09-03T17:51:03.187Z,41.31
2022-09-03T17:53:40.537Z,41.28
2022-09-03T17:56:33.670Z,41.54
2022-09-03T17:59:21.231Z,41.74
2022-09-03T18:01:55.365Z,41.82
2022-09-03T18:04:46.222Z,41.88
2022-09-03T18:07:39.461Z,41.99
2022-09-03T18:10:22.145Z,42.18
2022-09-03T18:13:16.062Z,42.34
2022-09-03T18:15:58.146Z,42.50
2022-09-03T18:18:31.360Z,42.75
2022-09-03T18:21:25.450Z,42.85
2022-09-03T18:24:23.426Z,42.93
2022-09-03T18:27:18.206Z,43.17
2022-09-03T18:30:08.016Z,43.40
2022-09-03T18:32:54.428Z,43.62
2022-09-03T18:35:44.468Z,43.79
2022-09-03T18:38:31.048Z,43.92
2022-09-03T18:41:51.895Z,44.17
2022-09-03T18:45:56.348Z,44.31
2022-09-03T18:48:54.261Z,44.56
2022-09-03T18:51:57.588Z,44.78
2022-09-03T18:55:08.179Z,44.91
2022-09-03T18:58:18.204Z,45.23
2022-09-03T19:01:34.921Z,45.27
2022-09-03T19:04:30.496Z,45.38
2022-09-03T19:07:52.654Z,45.56
2022-09-03T19:11:28.155Z,45.63
2022-09-03T19:14:22.563Z,45.85
2022-09-03T19:17:20.014Z,46.05
2022-09-03T19:20:34.160Z,46.25
2022-09-03T19:23:22.016Z,46.27
2022-09-03T19:26:14.587Z,46.54
2022-09-03T19:29:06.291Z,46.59
2022-09-03T19:32:03.999Z,46.65
2022-09-03T19:35:08.960Z,46.76
2022-09-03T19:38:17.466Z,46.79
2022-09-03T19:41:15.983Z,46.85
2022-09-03T19:44:07.460Z,47.04
2022-09-03T19:47:08.883Z,47.10
2022-09-03T19:50:31.733Z,47.26
2022-09-03T19:53:21.773Z,47.37
2022-09-03T19:56:18.900Z,47.66
2022-09-03T19:59:13.093Z,47.77
2022-09-03T20:02:01.267Z,47.89
2022-09-03T20:04:51.757Z,48.12
2022-09-03T20:07:40.148Z,48.26
2022-09-03T20:10:24.044Z,48.52
2022-09-03T20:13:00.692Z,48.61
2022-09-03T20:15:42.327Z,48.80
2022-09-03T20:18:23.732Z,48.73
2022-09-03T20:21:08.694Z,48.92
2022-09-03T20:23:41.383Z,49.04
2022-09-03T20:26:30.501Z,49.21
2022-09-03T20:29:22.918Z,49.29
2022-09-03T20:31:56.658Z,49.44
2022-09-03T20:34:27.361Z,49.67
2022-09-03T20:37:14.582Z,49.86
2022-09-03T20:40:11.960Z,50.00
2022-09-03T20:43:07.051Z,50.15
2022-09-03T20:46:18.995Z,50.20
2022-09-03T20:49:08.491Z,50.25
2022-09-03T20:51:42.289Z,50.47
2022-09-03T20:54:13.637Z,50.57
2022-09-03T20:56:50.255Z,50.61
2022-09-03T20:59:25.620Z,50.55
2022-09-03T21:02:05.873Z,50.51
2022-09-03T21:05:02.914Z,50.64
2022-09-03T21:07:43.980Z,50.67
2022-09-03T21:10:55.240Z,50.64
2022-09-03T21:13:44.910Z,50.61
2022-09-03T21:16:13.751Z,50.66
2022-09-03T21:19:19.656Z,50.66
2022-09-03T21:21:53.456Z,50.56
2022-09-03T21:24:31.297Z,50.55
2022-09-03T21:27:05.381Z,50.49
2022-09-03T21:29:41.432Z,50.56
2022-09-03T21:32:19.827Z,50.54
2022-09-03T21:35:08.985Z,50.50
2022-09-03T21:37:39.664Z,50.45
2022-09-03T21:40:12.211Z,50.36
2022-09-03T21:42:52.892Z,50.30
2022-09-03T21:45:41.184Z,50.29
2022-09-03T21:48:16.467Z,50.25
2022-09-03T21:50:57.426Z,50.22
2022-09-03T21:53:33.226Z,50.15
2022-09-03T21:56:25.504Z,50.13
2022-09-03T21:59:19.765Z,50.17
2022-09-03T22:02:24.538Z,50.20
2022-09-03T22:04:54.083Z,50.17
2022-09-03T22:07:37.044Z,50.19
2022-09-03T22:10:20.259Z,50.17
2022-09-03T22:13:04.204Z,50.15
2022-09-03T22:15:33.282Z,50.17
2022-09-03T22:18:15.480Z,50.18
2022-09-03T22:20:58.040Z,50.26
2022-09-03T22:23:43.745Z,50.29
2022-09-03T22:26:45.814Z,50.33
2022-09-03T22:29:35.231Z,50.35
2022-09-03T22:32:24.946Z,50.39
2022-09-03T22:35:26.190Z,50.43
2022-09-03T22:38:16.126Z,50.46
2022-09-03T22:40:52.463Z,50.52
2022-09-03T22:43:42.756Z,50.59
2022-09-03T22:46:14.650Z,50.57
2022-09-03T22:49:00.405Z,50.60
2022-09-03T22:51:36.690Z,50.65
2022-09-03T22:54:27.782Z,50.74
2022-09-03T22:56:58.038Z,50.77
2022-09-03T22:59:33.273Z,50.89
2022-09-03T23:02:11.309Z,50.91
2022-09-03T23:05:06.298Z,50.99
2022-09-03T23:07:55.518Z,50.99
2022-09-03T23:10:31.199Z,51.02
2022-09-03T23:13:16.733Z,51.08
2022-09-03T23:15:52.033Z,51.11
2022-09-03T23:18:27.126Z,51.17
2022-09-03T23:21:22.232Z,51.29
2022-09-03T23:23:59.911Z,51.31
2022-09-03T23:26:46.278Z,51.35
2022-09-03T23:29:26.097Z,51.41
2022-09-03T23:31:57.624Z,51.48
2022-09-03T23:34:27.085Z,51.56
2022-09-03T23:37:34.509Z,51.68
2022-09-03T23:40:09.209Z,51.69
2022-09-03T23:42:55.419Z,51.79
2022-09-03T23:45:47.906Z,51.84
2022-09-03T23:48:30.079Z,51.86
2022-09-03T23:51:22.703Z,52.04
2022-09-03T23:54:19.255Z,52.18
2022-09-03T23:57:07.146Z,52.26
